Time;durP1;ratioP1;P1;durP2;ratioP2;P2;SDS_P1;SDS_P2;PMS_P1;PMS_P2;Temp;Humidity;BMP_temperature;BMP_pressure;BME280_temperature;BME280_humidity;BME280_pressure;Samples;Min_cycle;Max_cycle;Signal;HPM_P1;HPM_P2
2021/09/23 00:00:54;;;;;;;28.55;16.20;;;;;;;10.82;100.00;101308.34;6410029;23;20001;-79
2021/09/23 00:05:59;;;;;;;22.98;14.63;;;;;;;10.84;100.00;101306.53;6410474;23;20035;-79
2021/09/23 00:08:30;;;;;;;23.88;14.77;;;;;;;10.60;100.00;101309.72;6399425;23;20064;-79
2021/09/23 00:11:00;;;;;;;24.45;15.07;;;;;;;10.59;100.00;101315.84;6399583;23;20008;-80
2021/09/23 00:13:31;;;;;;;27.80;14.52;;;;;;;10.59;100.00;101310.63;6399085;23;20441;-80
2021/09/23 00:16:02;;;;;;;24.00;14.00;;;;;;;10.78;100.00;101306.66;6397741;23;20001;-79
2021/09/23 00:18:33;;;;;;;22.35;15.25;;;;;;;10.77;100.00;101304.94;6409340;23;20001;-80
2021/09/23 00:21:06;;;;;;;24.00;15.75;;;;;;;10.81;100.00;101301.34;6398611;23;20032;-80
2021/09/23 00:23:36;;;;;;;25.15;15.30;;;;;;;10.83;100.00;101304.81;6409128;23;19993;-80
2021/09/23 00:26:06;;;;;;;24.02;14.43;;;;;;;10.89;100.00;101294.19;6398190;23;20031;-80
2021/09/23 00:28:38;;;;;;;24.15;15.60;;;;;;;10.95;100.00;101286.19;6410829;23;19997;-79
2021/09/23 00:31:09;;;;;;;26.00;15.23;;;;;;;10.77;100.00;101278.81;6410947;23;20051;-79
2021/09/23 00:33:39;;;;;;;26.10;15.98;;;;;;;10.78;100.00;101276.16;6397793;23;20024;-80
2021/09/23 00:36:10;;;;;;;26.42;16.05;;;;;;;10.83;100.00;101281.28;6397729;23;20022;-80
2021/09/23 00:38:40;;;;;;;25.75;15.88;;;;;;;10.90;100.00;101269.75;6397896;23;20187;-80
2021/09/23 00:41:10;;;;;;;24.48;15.30;;;;;;;10.77;100.00;101264.00;6413485;23;20033;-79
2021/09/23 00:43:41;;;;;;;26.33;15.50;;;;;;;10.66;100.00;101262.56;6398850;23;20449;-80
2021/09/23 00:46:11;;;;;;;23.10;15.45;;;;;;;10.56;100.00;101261.03;6411711;23;20003;-80
2021/09/23 00:48:43;;;;;;;26.25;16.00;;;;;;;10.62;100.00;101269.59;6399589;23;20008;-80
2021/09/23 00:51:13;;;;;;;25.67;15.32;;;;;;;10.67;100.00;101253.81;6400364;23;20036;-80
2021/09/23 00:53:44;;;;;;;25.63;15.63;;;;;;;10.51;100.00;101247.25;6397945;23;20009;-80
2021/09/23 00:56:15;;;;;;;24.92;15.55;;;;;;;10.47;100.00;101253.41;6410585;23;20048;-79
2021/09/23 00:58:45;;;;;;;23.92;15.10;;;;;;;10.51;100.00;101249.84;6398065;23;20009;-80
2021/09/23 01:01:15;;;;;;;25.65;15.93;;;;;;;10.52;100.00;101248.97;6400133;23;20040;-80
2021/09/23 01:03:45;;;;;;;26.88;16.17;;;;;;;10.49;100.00;101251.66;6411664;23;19993;-80
2021/09/23 01:06:16;;;;;;;26.33;15.68;;;;;;;10.48;100.00;101244.72;6413394;23;20001;-80
2021/09/23 01:08:58;;;;;;;26.52;14.75;;;;;;;10.32;100.00;101251.19;6399002;23;20012;-80
2021/09/23 01:11:29;;;;;;;24.17;14.50;;;;;;;10.37;100.00;101254.56;6410555;23;20001;-80
2021/09/23 01:13:59;;;;;;;27.88;16.08;;;;;;;10.41;100.00;101248.34;6397369;23;20008;-80
2021/09/23 01:16:29;;;;;;;25.70;16.00;;;;;;;10.27;100.00;101247.81;6409548;23;20069;-80
2021/09/23 01:19:00;;;;;;;24.25;14.13;;;;;;;10.39;100.00;101232.72;6410617;23;20168;-80
2021/09/23 01:21:30;;;;;;;24.25;14.63;;;;;;;10.30;100.00;101234.69;6410518;23;20007;-80
2021/09/23 01:24:01;;;;;;;21.30;13.73;;;;;;;10.26;100.00;101233.03;6411254;23;20097;-80
2021/09/23 01:26:32;;;;;;;24.33;14.00;;;;;;;10.33;100.00;101224.19;6413610;23;20044;-80
2021/09/23 01:29:02;;;;;;;24.15;14.73;;;;;;;10.33;100.00;101219.78;6412907;23;20001;-80
2021/09/23 01:31:32;;;;;;;20.08;12.82;;;;;;;10.36;100.00;101224.09;6411346;23;20009;-80
2021/09/23 01:34:02;;;;;;;25.40;15.35;;;;;;;10.27;100.00;101232.13;6411856;23;20052;-80
2021/09/23 01:36:33;;;;;;;25.00;14.70;;;;;;;10.35;100.00;101227.59;6415370;23;20036;-80
2021/09/23 01:39:03;;;;;;;25.30;14.65;;;;;;;10.32;100.00;101227.69;6415166;23;20005;-80
2021/09/23 01:41:34;;;;;;;26.27;14.90;;;;;;;10.38;100.00;101220.53;6402964;23;20000;-80
2021/09/23 01:44:04;;;;;;;25.77;14.35;;;;;;;10.52;100.00;101209.75;6413083;23;20049;-80
2021/09/23 01:46:35;;;;;;;25.98;15.35;;;;;;;10.46;100.00;101200.31;6412466;23;20004;-80
2021/09/23 01:49:06;;;;;;;24.20;15.70;;;;;;;10.40;100.00;101183.94;6412893;23;20089;-80
2021/09/23 01:51:36;;;;;;;26.33;15.65;;;;;;;10.32;100.00;101180.66;6412765;23;20315;-80
2021/09/23 01:54:07;;;;;;;25.85;16.30;;;;;;;10.27;100.00;101182.50;6411286;23;20000;-80
2021/09/23 01:56:37;;;;;;;27.33;17.15;;;;;;;10.15;100.00;101177.59;6397954;23;20055;-80
2021/09/23 01:59:08;;;;;;;27.70;16.60;;;;;;;10.14;100.00;101166.28;6410652;23;20009;-80
2021/09/23 02:01:38;;;;;;;27.80;16.17;;;;;;;10.14;100.00;101162.84;6398655;23;19997;-80
2021/09/23 02:04:08;;;;;;;26.92;17.10;;;;;;;10.18;100.00;101167.06;6410850;23;20008;-80
2021/09/23 02:06:39;;;;;;;29.20;16.60;;;;;;;10.23;100.00;101167.81;6404219;23;20009;-80
2021/09/23 02:09:09;;;;;;;28.33;17.73;;;;;;;10.30;100.00;101164.13;6409046;23;20251;-80
2021/09/23 02:11:39;;;;;;;28.77;17.35;;;;;;;10.35;100.00;101160.53;6418829;23;20016;-80
2021/09/23 02:14:10;;;;;;;29.45;17.85;;;;;;;10.47;100.00;101159.34;6409067;23;20009;-80
2021/09/23 02:16:40;;;;;;;28.63;17.67;;;;;;;10.53;100.00;101146.13;6411237;23;20012;-80
2021/09/23 02:19:10;;;;;;;33.80;19.38;;;;;;;10.60;100.00;101139.84;6410551;23;20008;-80
2021/09/23 02:21:41;;;;;;;28.30;16.92;;;;;;;10.63;100.00;101126.69;6399512;23;19997;-80
2021/09/23 02:24:11;;;;;;;33.80;19.30;;;;;;;10.65;100.00;101132.75;6402944;23;20008;-79
2021/09/23 02:26:41;;;;;;;31.52;19.27;;;;;;;10.75;100.00;101131.59;6414301;23;20001;-80
2021/09/23 02:29:12;;;;;;;35.15;20.15;;;;;;;10.83;100.00;101132.25;6413358;23;20024;-80
2021/09/23 02:31:42;;;;;;;36.30;19.17;;;;;;;10.86;100.00;101132.16;6401160;23;19997;-80
2021/09/23 02:34:13;;;;;;;38.25;21.52;;;;;;;10.85;100.00;101120.81;6411994;23;20008;-80
2021/09/23 02:36:43;;;;;;;36.33;20.55;;;;;;;10.88;100.00;101125.97;6399459;23;20008;-80
2021/09/23 02:39:13;;;;;;;35.85;21.45;;;;;;;10.91;100.00;101117.19;6412340;23;20004;-80
2021/09/23 02:41:43;;;;;;;35.50;20.40;;;;;;;10.92;100.00;101106.69;6413339;23;20032;-80
2021/09/23 02:44:14;;;;;;;35.58;19.92;;;;;;;10.88;100.00;101106.81;6411497;23;20460;-80
2021/09/23 02:46:45;;;;;;;33.22;19.55;;;;;;;10.95;100.00;101095.28;6400614;23;20001;-80
2021/09/23 02:49:15;;;;;;;32.63;18.92;;;;;;;10.94;100.00;101093.56;6399914;23;20009;-80
2021/09/23 02:51:45;;;;;;;35.33;20.27;;;;;;;10.99;100.00;101099.53;6413048;23;20330;-80
2021/09/23 02:54:16;;;;;;;30.38;19.23;;;;;;;10.92;100.00;101087.53;6412990;23;20005;-80
2021/09/23 02:56:46;;;;;;;33.92;18.60;;;;;;;10.93;100.00;101084.00;6412675;23;20035;-80
2021/09/23 02:59:16;;;;;;;33.05;18.52;;;;;;;10.74;100.00;101090.66;6412256;23;20032;-80
2021/09/23 03:01:46;;;;;;;28.70;17.30;;;;;;;10.65;100.00;101090.94;6412138;23;20008;-80
2021/09/23 03:04:17;;;;;;;29.35;18.05;;;;;;;10.56;100.00;101075.47;6412030;23;20020;-80
2021/09/23 03:06:47;;;;;;;30.48;17.73;;;;;;;10.52;100.00;101068.63;6400861;23;20093;-80
2021/09/23 03:09:17;;;;;;;32.33;18.20;;;;;;;10.50;100.00;101070.44;6399854;23;20040;-80
2021/09/23 03:11:47;;;;;;;31.23;17.83;;;;;;;10.52;100.00;101058.19;6400525;23;20012;-80
2021/09/23 03:14:18;;;;;;;32.20;17.75;;;;;;;10.52;100.00;101056.41;6411296;23;20005;-80
2021/09/23 03:16:49;;;;;;;34.95;18.13;;;;;;;10.51;100.00;101049.47;6399892;23;20032;-80
2021/09/23 03:19:20;;;;;;;30.38;17.17;;;;;;;10.60;100.00;101041.38;6410962;23;20005;-80
2021/09/23 03:21:50;;;;;;;35.80;19.73;;;;;;;10.63;100.00;101037.81;6413031;23;20011;-80
2021/09/23 03:24:21;;;;;;;36.45;19.02;;;;;;;10.65;100.00;101036.03;6411451;23;19996;-80
2021/09/23 03:26:51;;;;;;;38.38;19.70;;;;;;;10.69;100.00;101030.66;6399306;23;20011;-80
2021/09/23 03:29:22;;;;;;;35.58;20.23;;;;;;;10.69;100.00;101032.44;6399576;23;20059;-80
2021/09/23 03:31:52;;;;;;;36.13;18.70;;;;;;;10.69;100.00;101027.19;6400703;23;20009;-80
2021/09/23 03:34:23;;;;;;;36.38;20.40;;;;;;;10.75;100.00;101029.63;6399860;23;20008;-80
2021/09/23 03:36:53;;;;;;;41.20;20.65;;;;;;;10.76;100.00;101033.94;6411218;23;20001;-80
2021/09/23 03:39:23;;;;;;;38.75;20.95;;;;;;;10.85;100.00;101026.69;6399902;23;20303;-80
2021/09/23 03:41:54;;;;;;;36.30;21.15;;;;;;;10.85;100.00;101025.84;6412390;23;20001;-80
2021/09/23 03:44:24;;;;;;;33.90;20.20;;;;;;;10.89;100.00;101028.31;6411923;23;19996;-80
2021/09/23 03:46:55;;;;;;;34.17;19.88;;;;;;;10.82;100.00;101029.41;6400061;23;19997;-80
2021/09/23 03:49:26;;;;;;;33.45;18.45;;;;;;;10.70;100.00;101023.69;6411710;23;20001;-80
2021/09/23 03:51:56;;;;;;;32.78;18.20;;;;;;;10.53;100.00;101016.31;6411953;23;20012;-81
2021/09/23 03:54:26;;;;;;;30.13;16.92;;;;;;;10.34;100.00;101030.78;6409340;23;20005;-82
2021/09/23 03:56:57;;;;;;;34.80;17.15;;;;;;;10.40;100.00;101024.53;6397540;23;20362;-82
2021/09/23 03:59:27;;;;;;;28.80;17.02;;;;;;;10.20;100.00;101019.00;6397067;23;20035;-82
2021/09/23 04:01:57;;;;;;;31.75;17.00;;;;;;;10.13;100.00;101026.16;6409114;23;20001;-81
2021/09/23 04:04:28;;;;;;;28.00;17.25;;;;;;;10.16;100.00;101027.84;6396503;23;20254;-82
2021/09/23 04:06:58;;;;;;;27.45;17.23;;;;;;;10.21;100.00;101025.94;6396136;23;20091;-82
2021/09/23 04:09:28;;;;;;;34.95;18.42;;;;;;;10.26;100.00;101021.44;6408352;23;20005;-82
2021/09/23 04:11:58;;;;;;;31.95;18.27;;;;;;;10.33;100.00;101012.56;6408807;23;20004;-81
2021/09/23 04:14:29;;;;;;;30.63;16.98;;;;;;;10.26;100.00;101009.25;6397990;23;20071;-81
2021/09/23 04:16:59;;;;;;;27.67;17.73;;;;;;;10.37;100.00;101008.97;6412090;23;20198;-82
2021/09/23 04:19:30;;;;;;;32.65;18.45;;;;;;;10.24;100.00;101011.06;6397878;23;20005;-81
2021/09/23 04:22:00;;;;;;;30.08;17.52;;;;;;;10.31;100.00;101006.53;6410334;23;20040;-82
2021/09/23 04:24:30;;;;;;;30.80;18.38;;;;;;;10.32;100.00;101008.22;6410704;23;20016;-82
2021/09/23 04:27:01;;;;;;;36.78;19.25;;;;;;;10.30;100.00;101005.66;6410660;23;20001;-81
2021/09/23 04:29:31;;;;;;;32.58;19.80;;;;;;;10.35;100.00;101008.97;6409387;23;19997;-82
2021/09/23 04:32:02;;;;;;;36.83;21.30;;;;;;;10.48;100.00;101007.75;6397165;23;20001;-81
2021/09/23 04:34:32;;;;;;;33.30;19.73;;;;;;;10.50;100.00;101002.50;6412082;23;20084;-82
2021/09/23 04:37:03;;;;;;;41.58;22.75;;;;;;;10.65;100.00;101002.91;6410407;23;20001;-80
2021/09/23 04:39:33;;;;;;;43.80;22.40;;;;;;;10.73;100.00;100994.84;6408912;23;19997;-81
2021/09/23 04:42:04;;;;;;;38.05;21.98;;;;;;;10.79;100.00;100995.50;6395982;23;20023;-80
2021/09/23 04:44:34;;;;;;;38.22;21.75;;;;;;;10.83;100.00;100986.66;6409128;23;20253;-80
2021/09/23 04:47:05;;;;;;;40.92;21.60;;;;;;;10.88;100.00;100987.38;6396338;23;20013;-80
2021/09/23 04:49:35;;;;;;;42.30;21.85;;;;;;;10.94;100.00;100988.94;6396858;23;20311;-80
2021/09/23 04:52:05;;;;;;;38.45;21.58;;;;;;;10.97;100.00;100984.50;6408594;23;20053;-80
2021/09/23 04:54:36;;;;;;;37.47;20.70;;;;;;;10.98;100.00;100986.22;6399601;23;20005;-81
2021/09/23 04:57:07;;;;;;;37.08;20.63;;;;;;;10.94;100.00;100987.22;6403706;23;20001;-80
2021/09/23 04:59:44;;;;;;;40.80;21.20;;;;;;;10.96;100.00;100988.00;6411155;23;20053;-80
2021/09/23 05:02:15;;;;;;;31.98;18.33;;;;;;;10.96;100.00;100989.75;6406404;23;20228;-81
2021/09/23 05:04:47;;;;;;;34.55;20.70;;;;;;;10.83;100.00;100991.06;6422245;23;20053;-80
2021/09/23 05:07:17;;;;;;;35.20;18.73;;;;;;;10.60;100.00;100990.84;6414827;23;20005;-80
2021/09/23 05:09:47;;;;;;;36.88;19.77;;;;;;;10.53;100.00;100981.50;6409647;23;20025;-80
2021/09/23 05:12:17;;;;;;;35.28;19.48;;;;;;;10.54;100.00;100981.44;6399007;23;20027;-80
2021/09/23 05:14:48;;;;;;;33.58;18.73;;;;;;;10.53;100.00;100969.25;6399077;23;20008;-80
2021/09/23 05:17:19;;;;;;;33.42;18.95;;;;;;;10.51;100.00;100965.00;6402341;23;20016;-80
2021/09/23 05:19:50;;;;;;;39.30;19.80;;;;;;;10.56;100.00;100952.66;6397089;23;20345;-80
2021/09/23 05:22:24;;;;;;;36.67;19.05;;;;;;;10.58;100.00;100948.22;6409409;23;20017;-80
2021/09/23 05:24:55;;;;;;;36.33;19.88;;;;;;;10.54;100.00;100951.84;6396733;23;20071;-80
2021/09/23 05:27:25;;;;;;;37.20;20.35;;;;;;;10.70;100.00;100958.34;6407723;23;20005;-81
2021/09/23 05:29:56;;;;;;;34.42;19.77;;;;;;;10.80;100.00;100964.97;6407838;23;20007;-81
2021/09/23 05:32:27;;;;;;;33.42;18.90;;;;;;;10.96;100.00;100951.41;6408999;23;20001;-80
2021/09/23 05:34:57;;;;;;;38.08;20.73;;;;;;;11.09;100.00;100948.34;6409286;23;20005;-80
2021/09/23 05:37:28;;;;;;;31.08;17.92;;;;;;;11.26;100.00;100951.28;6389604;23;20457;-80
2021/09/23 05:39:58;;;;;;;35.90;18.88;;;;;;;11.46;100.00;100948.84;6408303;23;20024;-80
2021/09/23 05:42:28;;;;;;;29.25;17.65;;;;;;;11.60;100.00;100951.06;6409353;23;20008;-80
2021/09/23 05:44:59;;;;;;;30.75;17.17;;;;;;;11.69;100.00;100950.75;6409016;23;19993;-80
2021/09/23 05:47:29;;;;;;;32.97;17.10;;;;;;;11.84;100.00;100940.63;6397804;23;20158;-80
2021/09/23 05:50:00;;;;;;;31.17;17.38;;;;;;;11.97;100.00;100933.19;6396755;23;20009;-81
2021/09/23 05:52:31;;;;;;;33.10;17.85;;;;;;;11.93;100.00;100942.06;6397291;23;20473;-80
2021/09/23 05:55:02;;;;;;;28.02;15.93;;;;;;;11.97;100.00;100949.72;6397124;23;20005;-80
2021/09/23 05:57:34;;;;;;;30.25;16.90;;;;;;;12.02;100.00;100942.59;6411136;23;20314;-80
2021/09/23 06:00:14;;;;;;;31.08;17.17;;;;;;;12.27;100.00;100939.94;6397349;23;20001;-80
2021/09/23 06:02:45;;;;;;;27.77;16.23;;;;;;;12.32;100.00;100938.00;6409150;23;20049;-80
2021/09/23 06:05:16;;;;;;;28.05;16.50;;;;;;;12.30;100.00;100931.97;6397721;23;19997;-80
2021/09/23 06:07:46;;;;;;;26.10;15.73;;;;;;;12.44;100.00;100922.66;6409296;23;20008;-80
2021/09/23 06:10:17;;;;;;;31.95;16.63;;;;;;;12.42;100.00;100908.75;6398060;23;20000;-80
2021/09/23 06:12:47;;;;;;;27.05;15.82;;;;;;;12.55;100.00;100901.28;6397784;23;20005;-80
2021/09/23 06:15:17;;;;;;;25.35;14.88;;;;;;;12.65;100.00;100895.63;6409060;23;20005;-80
2021/09/23 06:17:47;;;;;;;27.95;16.48;;;;;;;12.58;100.00;100891.53;6398777;23;20005;-80
2021/09/23 06:20:18;;;;;;;26.75;15.32;;;;;;;12.72;100.00;100888.38;6397924;23;20009;-80
2021/09/23 06:22:50;;;;;;;26.77;14.93;;;;;;;12.75;100.00;100896.97;6408266;23;20009;-80
2021/09/23 06:25:21;;;;;;;25.77;15.15;;;;;;;12.87;100.00;100887.78;6408647;23;20047;-80
2021/09/23 06:27:52;;;;;;;24.48;14.45;;;;;;;12.95;100.00;100883.13;6408450;23;20527;-80
2021/09/23 06:30:22;;;;;;;24.33;14.20;;;;;;;13.08;100.00;100879.94;6409152;23;19997;-80
2021/09/23 06:32:52;;;;;;;24.13;14.90;;;;;;;13.07;100.00;100883.47;6409126;23;20004;-80
2021/09/23 06:35:24;;;;;;;22.42;14.25;;;;;;;13.06;100.00;100881.75;6397452;23;20001;-80
2021/09/23 06:37:54;;;;;;;26.00;15.38;;;;;;;13.27;100.00;100865.97;6408145;23;20091;-80
2021/09/23 06:40:25;;;;;;;23.52;13.48;;;;;;;13.40;100.00;100861.06;6403100;23;20008;-80
2021/09/23 06:42:55;;;;;;;24.35;13.90;;;;;;;13.55;100.00;100863.88;6409058;23;19997;-80
2021/09/23 06:45:25;;;;;;;26.75;13.98;;;;;;;13.63;100.00;100868.81;6407965;23;20004;-81
2021/09/23 06:47:56;;;;;;;25.10;13.80;;;;;;;13.69;100.00;100861.53;6397169;23;20005;-80
2021/09/23 06:50:26;;;;;;;25.85;13.85;;;;;;;13.78;100.00;100873.41;6396720;23;20459;-80
2021/09/23 06:52:56;;;;;;;23.17;12.80;;;;;;;13.97;100.00;100879.53;6396558;23;20048;-80
2021/09/23 06:55:27;;;;;;;22.13;12.90;;;;;;;13.99;100.00;100872.44;6408496;23;20323;-81
2021/09/23 06:57:57;;;;;;;21.35;13.50;;;;;;;13.86;100.00;100868.66;6408651;23;20001;-80
2021/09/23 07:00:27;;;;;;;22.98;12.65;;;;;;;14.01;100.00;100862.72;6408835;23;20007;-80
2021/09/23 07:02:58;;;;;;;19.25;11.88;;;;;;;14.00;100.00;100855.75;6409147;23;20085;-80
2021/09/23 07:05:28;;;;;;;20.83;12.27;;;;;;;14.07;100.00;100855.41;6396050;23;20410;-80
2021/09/23 07:07:58;;;;;;;20.58;12.38;;;;;;;14.22;100.00;100867.06;6396773;23;20001;-80
2021/09/23 07:10:29;;;;;;;22.55;12.27;;;;;;;14.40;100.00;100863.56;6409059;23;20024;-80
2021/09/23 07:12:59;;;;;;;19.67;11.15;;;;;;;14.63;100.00;100872.06;6396682;23;20392;-80
2021/09/23 07:15:29;;;;;;;18.60;10.55;;;;;;;15.51;100.00;100849.22;6408737;23;20357;-81
2021/09/23 07:18:00;;;;;;;18.60;9.90;;;;;;;16.56;93.93;100837.41;6408270;23;20033;-81
2021/09/23 07:20:30;;;;;;;15.93;9.30;;;;;;;17.05;88.37;100842.47;6397826;23;20001;-81
2021/09/23 07:23:01;;;;;;;19.02;9.93;;;;;;;17.02;89.01;100837.34;6409362;23;20373;-81
2021/09/23 07:25:33;;;;;;;13.43;8.55;;;;;;;17.25;87.74;100829.81;6407915;23;19997;-81
2021/09/23 07:28:04;;;;;;;15.02;9.32;;;;;;;16.93;89.68;100822.88;6396202;23;20008;-81
2021/09/23 07:30:34;;;;;;;13.70;8.25;;;;;;;16.91;86.69;100818.63;6395859;23;20001;-81
2021/09/23 07:33:04;;;;;;;14.40;8.43;;;;;;;16.64;87.07;100816.72;6408138;23;20001;-81
2021/09/23 07:35:35;;;;;;;15.20;8.47;;;;;;;16.22;89.87;100821.72;6396439;23;20005;-81
2021/09/23 07:38:05;;;;;;;12.55;7.70;;;;;;;15.87;90.65;100815.69;6395574;23;20240;-80
2021/09/23 07:40:35;;;;;;;12.90;7.20;;;;;;;16.00;90.37;100831.69;6395246;23;19997;-81
2021/09/23 07:43:06;;;;;;;11.93;7.22;;;;;;;16.26;89.96;100818.81;6395655;23;20005;-81
2021/09/23 07:45:36;;;;;;;11.27;6.85;;;;;;;16.42;89.60;100797.75;6396496;23;19997;-81
2021/09/23 07:48:06;;;;;;;13.65;7.53;;;;;;;16.85;87.03;100792.59;6396212;23;20092;-81
2021/09/23 07:50:37;;;;;;;12.45;7.15;;;;;;;17.54;84.41;100777.88;6395606;23;20315;-82
2021/09/23 07:53:07;;;;;;;13.70;6.13;;;;;;;18.77;79.25;100786.69;6395624;23;20011;-81
2021/09/23 07:55:37;;;;;;;11.00;6.63;;;;;;;18.65;78.73;100784.84;6389738;23;20012;-81
2021/09/23 07:58:08;;;;;;;14.05;7.15;;;;;;;18.49;79.32;100783.31;6408201;23;19996;-81
2021/09/23 08:00:38;;;;;;;10.35;6.30;;;;;;;18.34;79.03;100786.94;6407931;23;20071;-81
2021/09/23 08:03:09;;;;;;;13.52;6.47;;;;;;;17.44;83.77;100782.00;6396126;23;20139;-82
2021/09/23 08:05:39;;;;;;;12.45;6.28;;;;;;;17.48;83.62;100778.25;6407232;23;20025;-81
2021/09/23 08:08:09;;;;;;;11.93;6.43;;;;;;;17.28;84.81;100775.94;6395172;23;20013;-81
2021/09/23 08:10:40;;;;;;;10.57;6.32;;;;;;;17.47;83.13;100781.84;6408179;23;20013;-81
2021/09/23 08:13:10;;;;;;;11.60;6.28;;;;;;;17.59;83.69;100781.94;6395229;23;20012;-81
2021/09/23 08:15:42;;;;;;;10.38;6.15;;;;;;;17.35;83.25;100772.00;6394337;23;20009;-79
2021/09/23 08:18:12;;;;;;;12.57;7.88;;;;;;;17.18;83.77;100764.22;6406504;23;20012;-79
2021/09/23 08:20:43;;;;;;;11.45;6.57;;;;;;;17.35;83.76;100762.28;6394248;23;20005;-79
2021/09/23 08:23:13;;;;;;;11.60;6.40;;;;;;;17.30;82.61;100752.91;6395838;23;20012;-79
2021/09/23 08:25:45;;;;;;;10.20;6.18;;;;;;;17.67;81.86;100741.84;6407126;23;20197;-79
2021/09/23 08:28:15;;;;;;;10.05;5.93;;;;;;;17.41;82.94;100746.06;6406309;23;20009;-81
2021/09/23 08:30:46;;;;;;;10.73;5.90;;;;;;;17.79;81.49;100741.06;6407640;23;20495;-81
2021/09/23 08:33:17;;;;;;;8.55;5.47;;;;;;;18.55;79.69;100732.59;6394438;23;20728;-81
2021/09/23 08:35:47;;;;;;;7.75;4.97;;;;;;;18.46;79.47;100741.13;6405682;23;20008;-79
2021/09/23 08:38:21;;;;;;;9.13;5.65;;;;;;;18.34;79.75;100734.00;6405389;23;20437;-78
2021/09/23 08:40:51;;;;;;;7.72;5.15;;;;;;;18.05;80.22;100717.31;6407283;23;20003;-79
2021/09/23 08:43:22;;;;;;;8.20;5.05;;;;;;;18.56;77.84;100729.88;6407287;23;20037;-79
2021/09/23 08:45:56;;;;;;;8.75;4.85;;;;;;;18.74;77.14;100716.25;6407532;23;20001;-80
2021/09/23 08:48:27;;;;;;;6.50;4.78;;;;;;;18.34;78.04;100716.31;6408212;23;20062;-79
2021/09/23 08:50:58;;;;;;;6.15;4.35;;;;;;;18.06;79.93;100712.88;6395254;23;20389;-79
2021/09/23 08:53:28;;;;;;;9.85;4.82;;;;;;;18.10;81.16;100703.78;6395579;23;20005;-80
2021/09/23 08:55:59;;;;;;;8.68;4.90;;;;;;;18.55;79.11;100695.53;6396084;23;20001;-80
2021/09/23 08:58:29;;;;;;;9.27;5.15;;;;;;;18.46;79.82;100698.78;6407899;23;20019;-80
2021/09/23 09:01:01;;;;;;;8.25;4.75;;;;;;;19.01;76.95;100703.81;6393138;23;20009;-79
2021/09/23 09:03:36;;;;;;;6.50;4.40;;;;;;;18.96;77.57;100692.66;6407886;23;20012;-79
2021/09/23 09:06:08;;;;;;;7.70;4.53;;;;;;;18.89;77.61;100683.44;6408004;23;20060;-79
2021/09/23 09:08:42;;;;;;;7.03;4.10;;;;;;;19.05;77.77;100681.44;6397428;23;20253;-79
2021/09/23 09:11:14;;;;;;;6.93;4.68;;;;;;;18.84;77.69;100677.59;6408099;23;20093;-80
2021/09/23 09:13:47;;;;;;;8.27;4.70;;;;;;;18.42;79.08;100673.47;6395621;23;20016;-79
2021/09/23 09:16:21;;;;;;;8.65;4.70;;;;;;;17.99;81.80;100666.63;6396563;23;20005;-79
2021/09/23 09:18:58;;;;;;;9.45;4.25;;;;;;;18.46;80.58;100664.38;6407469;23;20016;-80
2021/09/23 09:21:28;;;;;;;6.22;4.35;;;;;;;18.50;80.00;100650.84;6397135;23;20005;-79
2021/09/23 09:24:06;;;;;;;7.57;4.20;;;;;;;18.87;79.73;100644.75;6408684;23;20444;-79
2021/09/23 09:26:43;;;;;;;6.53;4.20;;;;;;;19.09;78.04;100637.88;6408413;23;20005;-79
2021/09/23 09:29:15;;;;;;;6.32;4.20;;;;;;;18.84;76.86;100627.28;6396490;23;20007;-80
2021/09/23 09:31:48;;;;;;;6.22;3.97;;;;;;;18.71;79.40;100616.78;6396444;23;20005;-79
2021/09/23 09:34:19;;;;;;;8.55;4.22;;;;;;;18.52;79.15;100635.69;6408068;23;20036;-79
2021/09/23 09:36:50;;;;;;;5.25;4.03;;;;;;;18.92;78.16;100629.41;6408581;23;20008;-79
2021/09/23 09:39:23;;;;;;;8.40;4.45;;;;;;;18.89;78.14;100614.56;6395526;23;20445;-80
2021/09/23 09:41:53;;;;;;;8.52;4.32;;;;;;;19.16;77.43;100612.69;6407507;23;19997;-79
2021/09/23 09:44:23;;;;;;;8.10;3.97;;;;;;;19.31;78.58;100603.63;6395609;23;20005;-79
2021/09/23 09:46:54;;;;;;;6.22;3.72;;;;;;;19.34;76.63;100599.94;6408209;23;20570;-79
2021/09/23 09:49:25;;;;;;;12.38;3.97;;;;;;;19.18;76.76;100597.53;6409274;23;20001;-79
2021/09/23 09:51:58;;;;;;;7.03;3.67;;;;;;;19.45;77.79;100605.31;6398174;23;20024;-80
2021/09/23 09:54:30;;;;;;;6.78;3.17;;;;;;;19.46;77.70;100585.81;6410666;23;20062;-79
2021/09/23 09:57:06;;;;;;;5.75;3.40;;;;;;;19.48;77.08;100595.31;6398414;23;20009;-79
2021/09/23 09:59:36;;;;;;;;;;;;;;;19.52;77.15;100580.91;6409830;23;20012;-79
2021/09/23 10:02:11;;;;;;;5.22;3.28;;;;;;;19.20;75.91;100579.72;6409548;23;20232;-79
2021/09/23 10:04:42;;;;;;;8.65;3.53;;;;;;;19.34;75.65;100574.28;6395503;23;19997;-78
2021/09/23 10:07:13;;;;;;;5.75;3.40;;;;;;;19.77;76.16;100559.59;6392619;23;20067;-79
2021/09/23 10:09:46;;;;;;;7.18;3.50;;;;;;;19.74;76.01;100559.81;6397539;23;20366;-79
2021/09/23 10:12:16;;;;;;;4.03;2.78;;;;;;;19.52;76.10;100566.78;6397033;23;19997;-80
2021/09/23 10:14:48;;;;;;;4.75;2.42;;;;;;;19.75;76.86;100560.69;6409507;23;20040;-80
2021/09/23 10:17:21;;;;;;;4.40;2.83;;;;;;;19.49;75.88;100553.75;6409542;23;20036;-79
2021/09/23 10:19:51;;;;;;;4.80;2.53;;;;;;;19.75;74.06;100548.25;6408829;23;20278;-80
2021/09/23 10:22:22;;;;;;;4.30;2.33;;;;;;;19.86;73.53;100553.63;6397472;23;20253;-79
2021/09/23 10:24:53;;;;;;;4.05;2.42;;;;;;;20.15;73.79;100544.34;6408498;23;20001;-79
2021/09/23 10:30:14;;;;;;;3.55;2.00;;;;;;;20.38;72.28;100530.19;6406747;23;20047;-79
2021/09/23 10:32:45;;;;;;;3.58;2.13;;;;;;;20.14;70.88;100534.69;6406944;23;20257;-80
2021/09/23 10:35:22;;;;;;;3.78;2.00;;;;;;;20.07;69.34;100525.53;6405617;23;20054;-79
2021/09/23 10:37:54;;;;;;;3.70;1.80;;;;;;;20.10;69.58;100522.63;6407453;23;20005;-79
2021/09/23 10:40:26;;;;;;;4.18;1.75;;;;;;;20.15;68.99;100527.59;6395814;23;20339;-80
2021/09/23 10:43:03;;;;;;;3.65;1.85;;;;;;;20.01;67.65;100520.66;6396637;23;20020;-79
2021/09/23 10:45:35;;;;;;;5.25;2.00;;;;;;;20.06;67.88;100512.34;6408689;23;20001;-79
2021/09/23 10:48:05;;;;;;;2.47;1.48;;;;;;;20.12;67.71;100510.09;6409061;23;20001;-80
2021/09/23 10:50:39;;;;;;;4.53;1.50;;;;;;;20.17;67.65;100510.59;6397268;23;20067;-79
2021/09/23 10:53:10;;;;;;;2.65;1.50;;;;;;;20.06;67.65;100491.97;6396450;23;20197;-79
2021/09/23 10:55:42;;;;;;;3.10;1.60;;;;;;;19.86;66.42;100495.25;6396361;23;20001;-79
2021/09/23 10:58:14;;;;;;;6.35;2.17;;;;;;;19.80;66.50;100493.03;6395627;23;20009;-80
2021/09/23 11:00:44;;;;;;;3.80;1.27;;;;;;;19.72;66.18;100490.13;6395785;23;20190;-79
2021/09/23 11:03:15;;;;;;;2.22;1.60;;;;;;;19.78;66.52;100486.19;6407223;23;20384;-80
2021/09/23 11:05:47;;;;;;;4.63;1.40;;;;;;;19.88;66.73;100481.88;6394957;23;20500;-79
2021/09/23 11:08:18;;;;;;;4.55;1.42;;;;;;;19.90;67.42;100470.19;6401728;23;20011;-80
2021/09/23 11:10:49;;;;;;;3.65;1.42;;;;;;;20.03;68.37;100465.69;6407244;23;20092;-79
2021/09/23 11:13:20;;;;;;;2.45;1.40;;;;;;;20.05;67.87;100462.91;6406479;23;20012;-79
2021/09/23 11:15:51;;;;;;;2.78;1.42;;;;;;;19.88;66.47;100460.63;6395650;23;20002;-79
2021/09/23 11:18:22;;;;;;;2.72;1.38;;;;;;;20.11;65.39;100457.97;6394862;23;20005;-79
2021/09/23 11:20:55;;;;;;;2.70;1.17;;;;;;;20.20;66.49;100467.91;6407810;23;20447;-79
2021/09/23 11:23:27;;;;;;;2.55;1.23;;;;;;;20.18;65.47;100461.88;6394732;23;20001;-79
2021/09/23 11:25:57;;;;;;;1.67;1.23;;;;;;;20.24;67.13;100458.72;6395282;23;20029;-79
2021/09/23 11:28:29;;;;;;;3.65;1.30;;;;;;;20.27;64.98;100458.50;6395667;23;20008;-79
2021/09/23 11:31:00;;;;;;;2.78;1.35;;;;;;;20.38;65.16;100466.47;6395959;23;20033;-79